sensor_id;sensor_type;location;lat;lon;timestamp;P1;durP1;ratioP1;P2;durP2;ratioP2
74196;SDS011;62555;52.678;4.900;2022-11-30T00:01:34;4.45;;;3.05;;
74196;SDS011;62555;52.678;4.900;2022-11-30T00:03:59;4.95;;;2.85;;
74196;SDS011;62555;52.678;4.900;2022-11-30T00:06:24;6.78;;;3.25;;
74196;SDS011;62555;52.678;4.900;2022-11-30T00:08:53;7.18;;;3.90;;
74196;SDS011;62555;52.678;4.900;2022-11-30T00:11:19;5.00;;;3.35;;
74196;SDS011;62555;52.678;4.900;2022-11-30T00:13:46;7.97;;;3.50;;
74196;SDS011;62555;52.678;4.900;2022-11-30T00:16:12;5.25;;;3.58;;
74196;SDS011;62555;52.678;4.900;2022-11-30T00:18:38;5.53;;;3.30;;
74196;SDS011;62555;52.678;4.900;2022-11-30T00:21:04;4.43;;;3.03;;
74196;SDS011;62555;52.678;4.900;2022-11-30T00:23:32;4.32;;;2.88;;
74196;SDS011;62555;52.678;4.900;2022-11-30T00:25:59;5.65;;;3.47;;
74196;SDS011;62555;52.678;4.900;2022-11-30T00:28:29;4.07;;;3.38;;
74196;SDS011;62555;52.678;4.900;2022-11-30T00:30:55;4.53;;;3.30;;
74196;SDS011;62555;52.678;4.900;2022-11-30T00:33:22;5.28;;;3.42;;
74196;SDS011;62555;52.678;4.900;2022-11-30T00:35:57;5.25;;;3.40;;
74196;SDS011;62555;52.678;4.900;2022-11-30T00:38:23;3.58;;;3.08;;
74196;SDS011;62555;52.678;4.900;2022-11-30T00:40:49;4.22;;;2.50;;
74196;SDS011;62555;52.678;4.900;2022-11-30T00:43:14;5.35;;;3.22;;
74196;SDS011;62555;52.678;4.900;2022-11-30T00:45:40;4.95;;;3.03;;
74196;SDS011;62555;52.678;4.900;2022-11-30T00:48:05;5.28;;;3.28;;
74196;SDS011;62555;52.678;4.900;2022-11-30T00:50:31;4.68;;;3.58;;
74196;SDS011;62555;52.678;4.900;2022-11-30T00:52:56;4.43;;;3.42;;
74196;SDS011;62555;52.678;4.900;2022-11-30T00:55:21;5.45;;;3.38;;
74196;SDS011;62555;52.678;4.900;2022-11-30T00:57:47;4.22;;;3.05;;
74196;SDS011;62555;52.678;4.900;2022-11-30T01:00:12;4.80;;;3.13;;
74196;SDS011;62555;52.678;4.900;2022-11-30T01:02:38;5.05;;;3.78;;
74196;SDS011;62555;52.678;4.900;2022-11-30T01:05:03;5.45;;;3.55;;
74196;SDS011;62555;52.678;4.900;2022-11-30T01:07:29;4.45;;;3.63;;
74196;SDS011;62555;52.678;4.900;2022-11-30T01:09:54;5.57;;;3.60;;
74196;SDS011;62555;52.678;4.900;2022-11-30T01:12:19;5.13;;;3.70;;
74196;SDS011;62555;52.678;4.900;2022-11-30T01:14:44;4.50;;;3.55;;
74196;SDS011;62555;52.678;4.900;2022-11-30T01:17:10;5.65;;;4.22;;
74196;SDS011;62555;52.678;4.900;2022-11-30T01:19:35;4.65;;;3.67;;
74196;SDS011;62555;52.678;4.900;2022-11-30T01:22:00;5.25;;;3.80;;
74196;SDS011;62555;52.678;4.900;2022-11-30T01:24:26;4.90;;;3.83;;
74196;SDS011;62555;52.678;4.900;2022-11-30T01:26:51;5.10;;;3.80;;
74196;SDS011;62555;52.678;4.900;2022-11-30T01:29:16;4.40;;;3.65;;
74196;SDS011;62555;52.678;4.900;2022-11-30T01:31:42;4.13;;;3.70;;
74196;SDS011;62555;52.678;4.900;2022-11-30T01:34:07;5.07;;;4.40;;
74196;SDS011;62555;52.678;4.900;2022-11-30T01:36:32;3.90;;;3.30;;
74196;SDS011;62555;52.678;4.900;2022-11-30T01:38:58;3.85;;;3.33;;
74196;SDS011;62555;52.678;4.900;2022-11-30T01:41:24;6.25;;;3.80;;
74196;SDS011;62555;52.678;4.900;2022-11-30T01:43:52;4.60;;;4.20;;
74196;SDS011;62555;52.678;4.900;2022-11-30T01:51:35;3.70;;;3.20;;
74196;SDS011;62555;52.678;4.900;2022-11-30T01:54:36;4.05;;;3.65;;
74196;SDS011;62555;52.678;4.900;2022-11-30T01:57:06;4.28;;;3.50;;
74196;SDS011;62555;52.678;4.900;2022-11-30T01:59:39;5.18;;;4.40;;
74196;SDS011;62555;52.678;4.900;2022-11-30T02:02:04;4.68;;;3.25;;
74196;SDS011;62555;52.678;4.900;2022-11-30T02:04:33;4.32;;;3.72;;
74196;SDS011;62555;52.678;4.900;2022-11-30T02:07:00;4.82;;;3.75;;
74196;SDS011;62555;52.678;4.900;2022-11-30T02:09:26;4.55;;;3.70;;
74196;SDS011;62555;52.678;4.900;2022-11-30T02:11:52;4.30;;;3.80;;
74196;SDS011;62555;52.678;4.900;2022-11-30T02:17:05;6.15;;;4.43;;
74196;SDS011;62555;52.678;4.900;2022-11-30T02:22:15;4.30;;;3.80;;
74196;SDS011;62555;52.678;4.900;2022-11-30T02:24:50;4.63;;;3.45;;
74196;SDS011;62555;52.678;4.900;2022-11-30T02:30:34;5.15;;;3.75;;
74196;SDS011;62555;52.678;4.900;2022-11-30T02:35:32;4.32;;;3.90;;
74196;SDS011;62555;52.678;4.900;2022-11-30T02:38:00;5.00;;;3.80;;
74196;SDS011;62555;52.678;4.900;2022-11-30T02:40:25;4.40;;;3.90;;
74196;SDS011;62555;52.678;4.900;2022-11-30T02:42:51;5.20;;;4.00;;
74196;SDS011;62555;52.678;4.900;2022-11-30T02:45:22;5.15;;;4.05;;
74196;SDS011;62555;52.678;4.900;2022-11-30T02:47:54;4.50;;;4.10;;
74196;SDS011;62555;52.678;4.900;2022-11-30T02:50:27;5.22;;;4.13;;
74196;SDS011;62555;52.678;4.900;2022-11-30T02:55:22;4.17;;;3.77;;
74196;SDS011;62555;52.678;4.900;2022-11-30T02:57:47;5.53;;;4.43;;
74196;SDS011;62555;52.678;4.900;2022-11-30T03:00:13;4.75;;;4.32;;
74196;SDS011;62555;52.678;4.900;2022-11-30T03:02:39;5.07;;;4.15;;
74196;SDS011;62555;52.678;4.900;2022-11-30T03:05:05;5.53;;;4.43;;
74196;SDS011;62555;52.678;4.900;2022-11-30T03:07:31;4.47;;;4.05;;
74196;SDS011;62555;52.678;4.900;2022-11-30T03:09:57;4.95;;;4.30;;
74196;SDS011;62555;52.678;4.900;2022-11-30T03:14:49;4.43;;;3.50;;
74196;SDS011;62555;52.678;4.900;2022-11-30T03:17:14;5.60;;;4.40;;
74196;SDS011;62555;52.678;4.900;2022-11-30T03:19:39;5.28;;;4.07;;
74196;SDS011;62555;52.678;4.900;2022-11-30T03:22:05;5.30;;;4.10;;
74196;SDS011;62555;52.678;4.900;2022-11-30T03:24:30;5.63;;;4.70;;
74196;SDS011;62555;52.678;4.900;2022-11-30T03:26:55;4.53;;;3.80;;
74196;SDS011;62555;52.678;4.900;2022-11-30T03:29:21;4.97;;;4.30;;
74196;SDS011;62555;52.678;4.900;2022-11-30T03:31:46;4.65;;;3.70;;
74196;SDS011;62555;52.678;4.900;2022-11-30T03:34:11;4.07;;;3.65;;
74196;SDS011;62555;52.678;4.900;2022-11-30T03:36:37;6.68;;;4.38;;
74196;SDS011;62555;52.678;4.900;2022-11-30T03:39:02;4.85;;;3.92;;
74196;SDS011;62555;52.678;4.900;2022-11-30T03:41:28;4.93;;;4.03;;
74196;SDS011;62555;52.678;4.900;2022-11-30T03:43:53;6.93;;;4.47;;
74196;SDS011;62555;52.678;4.900;2022-11-30T03:46:18;4.30;;;3.88;;
74196;SDS011;62555;52.678;4.900;2022-11-30T03:48:44;4.88;;;4.38;;
74196;SDS011;62555;52.678;4.900;2022-11-30T03:51:10;5.35;;;4.18;;
74196;SDS011;62555;52.678;4.900;2022-11-30T03:53:36;5.95;;;4.63;;
74196;SDS011;62555;52.678;4.900;2022-11-30T03:56:03;6.30;;;4.47;;
74196;SDS011;62555;52.678;4.900;2022-11-30T03:58:30;4.85;;;4.18;;
74196;SDS011;62555;52.678;4.900;2022-11-30T04:01:03;5.45;;;4.95;;
74196;SDS011;62555;52.678;4.900;2022-11-30T04:03:31;6.07;;;4.35;;
74196;SDS011;62555;52.678;4.900;2022-11-30T04:05:57;5.82;;;4.60;;
74196;SDS011;62555;52.678;4.900;2022-11-30T04:08:23;5.63;;;4.47;;
74196;SDS011;62555;52.678;4.900;2022-11-30T04:10:51;5.72;;;4.15;;
74196;SDS011;62555;52.678;4.900;2022-11-30T04:13:18;4.57;;;4.18;;
74196;SDS011;62555;52.678;4.900;2022-11-30T04:15:47;5.03;;;4.45;;
74196;SDS011;62555;52.678;4.900;2022-11-30T04:18:13;4.97;;;4.47;;
74196;SDS011;62555;52.678;4.900;2022-11-30T04:20:40;5.50;;;5.00;;
74196;SDS011;62555;52.678;4.900;2022-11-30T04:23:06;5.28;;;4.40;;
74196;SDS011;62555;52.678;4.900;2022-11-30T04:25:32;5.78;;;4.80;;
74196;SDS011;62555;52.678;4.900;2022-11-30T04:27:57;6.13;;;4.68;;
74196;SDS011;62555;52.678;4.900;2022-11-30T04:30:23;5.53;;;4.53;;
74196;SDS011;62555;52.678;4.900;2022-11-30T04:32:48;5.72;;;4.22;;
74196;SDS011;62555;52.678;4.900;2022-11-30T04:35:13;5.03;;;4.32;;
74196;SDS011;62555;52.678;4.900;2022-11-30T04:37:39;5.85;;;4.63;;
74196;SDS011;62555;52.678;4.900;2022-11-30T04:40:04;5.90;;;4.88;;
74196;SDS011;62555;52.678;4.900;2022-11-30T04:42:30;6.90;;;5.25;;
74196;SDS011;62555;52.678;4.900;2022-11-30T04:44:56;6.90;;;5.07;;
74196;SDS011;62555;52.678;4.900;2022-11-30T04:47:21;5.80;;;5.07;;
74196;SDS011;62555;52.678;4.900;2022-11-30T04:49:46;6.22;;;5.18;;
74196;SDS011;62555;52.678;4.900;2022-11-30T04:52:11;4.90;;;3.92;;
74196;SDS011;62555;52.678;4.900;2022-11-30T04:54:37;5.78;;;4.97;;
74196;SDS011;62555;52.678;4.900;2022-11-30T04:57:02;5.95;;;5.00;;
74196;SDS011;62555;52.678;4.900;2022-11-30T04:59:27;5.43;;;4.80;;
74196;SDS011;62555;52.678;4.900;2022-11-30T05:01:53;8.43;;;5.50;;
74196;SDS011;62555;52.678;4.900;2022-11-30T05:04:18;5.32;;;4.13;;
74196;SDS011;62555;52.678;4.900;2022-11-30T05:06:43;5.78;;;5.15;;
74196;SDS011;62555;52.678;4.900;2022-11-30T05:09:09;5.40;;;4.88;;
74196;SDS011;62555;52.678;4.900;2022-11-30T05:11:34;6.63;;;5.22;;
74196;SDS011;62555;52.678;4.900;2022-11-30T05:13:59;5.63;;;4.78;;
74196;SDS011;62555;52.678;4.900;2022-11-30T05:16:25;6.68;;;5.13;;
74196;SDS011;62555;52.678;4.900;2022-11-30T05:18:50;5.45;;;4.50;;
74196;SDS011;62555;52.678;4.900;2022-11-30T05:21:15;5.93;;;5.00;;
74196;SDS011;62555;52.678;4.900;2022-11-30T05:23:41;5.60;;;5.00;;
74196;SDS011;62555;52.678;4.900;2022-11-30T05:26:07;4.80;;;4.30;;
74196;SDS011;62555;52.678;4.900;2022-11-30T05:28:32;5.85;;;4.57;;
74196;SDS011;62555;52.678;4.900;2022-11-30T05:31:01;5.80;;;4.80;;
74196;SDS011;62555;52.678;4.900;2022-11-30T05:33:29;5.15;;;4.53;;
74196;SDS011;62555;52.678;4.900;2022-11-30T05:35:55;4.68;;;4.03;;
74196;SDS011;62555;52.678;4.900;2022-11-30T05:38:20;5.15;;;4.50;;
74196;SDS011;62555;52.678;4.900;2022-11-30T05:40:46;6.15;;;5.53;;
74196;SDS011;62555;52.678;4.900;2022-11-30T05:43:11;5.75;;;4.53;;
74196;SDS011;62555;52.678;4.900;2022-11-30T05:45:37;6.03;;;4.70;;
74196;SDS011;62555;52.678;4.900;2022-11-30T05:48:02;6.88;;;5.43;;
74196;SDS011;62555;52.678;4.900;2022-11-30T05:50:28;5.80;;;4.90;;
74196;SDS011;62555;52.678;4.900;2022-11-30T05:52:53;6.18;;;4.75;;
74196;SDS011;62555;52.678;4.900;2022-11-30T05:55:22;6.35;;;4.72;;
74196;SDS011;62555;52.678;4.900;2022-11-30T05:57:47;6.40;;;5.05;;
74196;SDS011;62555;52.678;4.900;2022-11-30T06:00:13;5.88;;;4.68;;
74196;SDS011;62555;52.678;4.900;2022-11-30T06:02:39;6.38;;;4.97;;
74196;SDS011;62555;52.678;4.900;2022-11-30T06:05:04;6.63;;;4.57;;
74196;SDS011;62555;52.678;4.900;2022-11-30T06:07:30;5.13;;;4.30;;
74196;SDS011;62555;52.678;4.900;2022-11-30T06:09:55;5.40;;;4.45;;
74196;SDS011;62555;52.678;4.900;2022-11-30T06:12:20;6.70;;;4.97;;
74196;SDS011;62555;52.678;4.900;2022-11-30T06:14:46;5.30;;;4.72;;
74196;SDS011;62555;52.678;4.900;2022-11-30T06:17:11;5.90;;;4.85;;
74196;SDS011;62555;52.678;4.900;2022-11-30T06:19:36;5.18;;;4.40;;
74196;SDS011;62555;52.678;4.900;2022-11-30T06:22:02;6.68;;;4.72;;
74196;SDS011;62555;52.678;4.900;2022-11-30T06:24:27;5.95;;;4.53;;
74196;SDS011;62555;52.678;4.900;2022-11-30T06:26:52;8.27;;;5.72;;
74196;SDS011;62555;52.678;4.900;2022-11-30T06:29:18;7.10;;;5.53;;
74196;SDS011;62555;52.678;4.900;2022-11-30T06:31:43;6.20;;;5.15;;
74196;SDS011;62555;52.678;4.900;2022-11-30T06:34:08;5.57;;;4.82;;
74196;SDS011;62555;52.678;4.900;2022-11-30T06:36:33;6.07;;;4.65;;
74196;SDS011;62555;52.678;4.900;2022-11-30T06:38:59;6.68;;;5.10;;
74196;SDS011;62555;52.678;4.900;2022-11-30T06:41:24;6.75;;;5.13;;
74196;SDS011;62555;52.678;4.900;2022-11-30T06:43:50;5.60;;;4.45;;
74196;SDS011;62555;52.678;4.900;2022-11-30T06:46:15;6.43;;;5.07;;
74196;SDS011;62555;52.678;4.900;2022-11-30T06:48:41;6.60;;;5.05;;
74196;SDS011;62555;52.678;4.900;2022-11-30T06:51:07;5.32;;;4.65;;
74196;SDS011;62555;52.678;4.900;2022-11-30T06:53:33;5.75;;;4.90;;
74196;SDS011;62555;52.678;4.900;2022-11-30T06:55:58;5.40;;;4.47;;
74196;SDS011;62555;52.678;4.900;2022-11-30T06:58:27;5.68;;;4.60;;
74196;SDS011;62555;52.678;4.900;2022-11-30T07:00:53;6.47;;;5.03;;
74196;SDS011;62555;52.678;4.900;2022-11-30T07:03:18;6.20;;;5.30;;
74196;SDS011;62555;52.678;4.900;2022-11-30T07:05:44;5.50;;;4.47;;
74196;SDS011;62555;52.678;4.900;2022-11-30T07:08:11;6.03;;;4.78;;
74196;SDS011;62555;52.678;4.900;2022-11-30T07:13:03;6.75;;;5.13;;
74196;SDS011;62555;52.678;4.900;2022-11-30T07:15:29;5.50;;;4.68;;
74196;SDS011;62555;52.678;4.900;2022-11-30T07:17:54;6.55;;;5.55;;
74196;SDS011;62555;52.678;4.900;2022-11-30T07:20:19;7.57;;;5.18;;
74196;SDS011;62555;52.678;4.900;2022-11-30T07:22:44;5.93;;;4.97;;
74196;SDS011;62555;52.678;4.900;2022-11-30T07:25:10;6.28;;;5.25;;
74196;SDS011;62555;52.678;4.900;2022-11-30T07:27:54;7.60;;;4.95;;
74196;SDS011;62555;52.678;4.900;2022-11-30T07:30:20;6.63;;;5.53;;
74196;SDS011;62555;52.678;4.900;2022-11-30T07:32:45;7.38;;;5.55;;
74196;SDS011;62555;52.678;4.900;2022-11-30T07:35:10;6.22;;;5.03;;
74196;SDS011;62555;52.678;4.900;2022-11-30T07:37:36;6.55;;;5.13;;
74196;SDS011;62555;52.678;4.900;2022-11-30T07:40:01;6.25;;;5.15;;
74196;SDS011;62555;52.678;4.900;2022-11-30T07:42:27;6.55;;;5.50;;
74196;SDS011;62555;52.678;4.900;2022-11-30T07:44:52;5.85;;;4.80;;
74196;SDS011;62555;52.678;4.900;2022-11-30T07:47:17;7.38;;;5.55;;
74196;SDS011;62555;52.678;4.900;2022-11-30T07:49:43;6.60;;;5.10;;
74196;SDS011;62555;52.678;4.900;2022-11-30T07:52:08;6.78;;;4.88;;
74196;SDS011;62555;52.678;4.900;2022-11-30T07:54:33;7.25;;;5.25;;
74196;SDS011;62555;52.678;4.900;2022-11-30T07:56:59;5.90;;;4.75;;
74196;SDS011;62555;52.678;4.900;2022-11-30T07:59:24;7.18;;;4.97;;
74196;SDS011;62555;52.678;4.900;2022-11-30T08:01:49;6.90;;;5.03;;
74196;SDS011;62555;52.678;4.900;2022-11-30T08:04:15;6.13;;;4.80;;
74196;SDS011;62555;52.678;4.900;2022-11-30T08:06:40;6.57;;;5.28;;
74196;SDS011;62555;52.678;4.900;2022-11-30T08:09:05;6.57;;;4.65;;
74196;SDS011;62555;52.678;4.900;2022-11-30T08:11:32;6.72;;;5.30;;
74196;SDS011;62555;52.678;4.900;2022-11-30T08:13:58;6.68;;;5.20;;
74196;SDS011;62555;52.678;4.900;2022-11-30T08:16:25;5.38;;;4.65;;
74196;SDS011;62555;52.678;4.900;2022-11-30T08:18:53;6.38;;;5.07;;
74196;SDS011;62555;52.678;4.900;2022-11-30T08:23:52;5.60;;;4.82;;
74196;SDS011;62555;52.678;4.900;2022-11-30T08:26:24;6.22;;;4.72;;
74196;SDS011;62555;52.678;4.900;2022-11-30T08:28:54;6.70;;;4.95;;
74196;SDS011;62555;52.678;4.900;2022-11-30T08:31:21;6.05;;;4.82;;
74196;SDS011;62555;52.678;4.900;2022-11-30T08:33:57;6.47;;;4.93;;
74196;SDS011;62555;52.678;4.900;2022-11-30T08:36:27;6.43;;;4.95;;
74196;SDS011;62555;52.678;4.900;2022-11-30T08:38:53;5.95;;;5.35;;
74196;SDS011;62555;52.678;4.900;2022-11-30T08:41:19;5.93;;;5.05;;
74196;SDS011;62555;52.678;4.900;2022-11-30T08:43:45;7.22;;;5.35;;
74196;SDS011;62555;52.678;4.900;2022-11-30T08:46:12;8.70;;;5.72;;
74196;SDS011;62555;52.678;4.900;2022-11-30T08:48:39;5.88;;;4.95;;
74196;SDS011;62555;52.678;4.900;2022-11-30T08:51:06;6.50;;;5.07;;
74196;SDS011;62555;52.678;4.900;2022-11-30T08:53:34;6.10;;;4.68;;
74196;SDS011;62555;52.678;4.900;2022-11-30T08:56:00;7.30;;;5.90;;
74196;SDS011;62555;52.678;4.900;2022-11-30T09:00:54;6.03;;;4.30;;
74196;SDS011;62555;52.678;4.900;2022-11-30T09:03:19;6.32;;;5.10;;
74196;SDS011;62555;52.678;4.900;2022-11-30T09:05:45;6.45;;;5.10;;
74196;SDS011;62555;52.678;4.900;2022-11-30T09:08:10;6.07;;;4.80;;
74196;SDS011;62555;52.678;4.900;2022-11-30T09:10:36;5.82;;;5.00;;
74196;SDS011;62555;52.678;4.900;2022-11-30T09:13:01;5.72;;;5.15;;
74196;SDS011;62555;52.678;4.900;2022-11-30T09:15:27;5.03;;;4.53;;
74196;SDS011;62555;52.678;4.900;2022-11-30T09:17:52;6.30;;;5.65;;
74196;SDS011;62555;52.678;4.900;2022-11-30T09:20:18;6.00;;;5.40;;
74196;SDS011;62555;52.678;4.900;2022-11-30T09:22:43;5.80;;;4.72;;
74196;SDS011;62555;52.678;4.900;2022-11-30T09:25:09;6.47;;;5.25;;
74196;SDS011;62555;52.678;4.900;2022-11-30T09:27:34;6.43;;;4.85;;
74196;SDS011;62555;52.678;4.900;2022-11-30T09:29:59;6.10;;;5.22;;
74196;SDS011;62555;52.678;4.900;2022-11-30T09:32:26;6.28;;;4.82;;
74196;SDS011;62555;52.678;4.900;2022-11-30T09:34:52;5.15;;;4.47;;
74196;SDS011;62555;52.678;4.900;2022-11-30T09:37:17;5.60;;;4.75;;
74196;SDS011;62555;52.678;4.900;2022-11-30T09:39:42;5.30;;;4.13;;
74196;SDS011;62555;52.678;4.900;2022-11-30T09:45:05;5.90;;;4.57;;
74196;SDS011;62555;52.678;4.900;2022-11-30T09:50:39;6.95;;;4.95;;
74196;SDS011;62555;52.678;4.900;2022-11-30T09:53:20;6.47;;;4.78;;
74196;SDS011;62555;52.678;4.900;2022-11-30T09:55:49;5.65;;;4.78;;
74196;SDS011;62555;52.678;4.900;2022-11-30T09:58:26;6.82;;;5.78;;
74196;SDS011;62555;52.678;4.900;2022-11-30T10:00:57;5.97;;;5.07;;
74196;SDS011;62555;52.678;4.900;2022-11-30T10:03:23;5.93;;;4.72;;
74196;SDS011;62555;52.678;4.900;2022-11-30T10:05:56;5.60;;;4.75;;
74196;SDS011;62555;52.678;4.900;2022-11-30T10:08:27;5.72;;;4.85;;
74196;SDS011;62555;52.678;4.900;2022-11-30T10:19:29;7.22;;;4.97;;
74196;SDS011;62555;52.678;4.900;2022-11-30T10:22:25;7.22;;;4.95;;
74196;SDS011;62555;52.678;4.900;2022-11-30T10:27:51;5.95;;;4.47;;
74196;SDS011;62555;52.678;4.900;2022-11-30T10:30:24;6.25;;;4.70;;
74196;SDS011;62555;52.678;4.900;2022-11-30T10:32:52;6.18;;;4.97;;
74196;SDS011;62555;52.678;4.900;2022-11-30T10:35:20;5.80;;;5.20;;
74196;SDS011;62555;52.678;4.900;2022-11-30T10:37:52;7.22;;;5.50;;
74196;SDS011;62555;52.678;4.900;2022-11-30T10:40:29;6.38;;;4.78;;
74196;SDS011;62555;52.678;4.900;2022-11-30T10:45:56;8.75;;;5.70;;
74196;SDS011;62555;52.678;4.900;2022-11-30T10:48:42;6.18;;;5.03;;
74196;SDS011;62555;52.678;4.900;2022-11-30T10:51:12;5.88;;;5.28;;
74196;SDS011;62555;52.678;4.900;2022-11-30T10:53:37;6.82;;;5.30;;
74196;SDS011;62555;52.678;4.900;2022-11-30T10:56:10;6.43;;;5.20;;
74196;SDS011;62555;52.678;4.900;2022-11-30T10:58:54;7.38;;;4.93;;
74196;SDS011;62555;52.678;4.900;2022-11-30T11:04:17;5.30;;;4.35;;
74196;SDS011;62555;52.678;4.900;2022-11-30T11:06:48;5.00;;;4.13;;
74196;SDS011;62555;52.678;4.900;2022-11-30T11:12:16;7.35;;;4.90;;
74196;SDS011;62555;52.678;4.900;2022-11-30T11:14:44;7.93;;;4.65;;
74196;SDS011;62555;52.678;4.900;2022-11-30T11:19:41;429.83;;;357.13;;
74196;SDS011;62555;52.678;4.900;2022-11-30T11:24:47;857.22;;;706.50;;
74196;SDS011;62555;52.678;4.900;2022-11-30T11:27:22;759.97;;;639.30;;
74196;SDS011;62555;52.678;4.900;2022-11-30T11:30:03;702.28;;;585.95;;
74196;SDS011;62555;52.678;4.900;2022-11-30T11:32:35;810.28;;;659.17;;
74196;SDS011;62555;52.678;4.900;2022-11-30T11:35:00;768.13;;;622.83;;
74196;SDS011;62555;52.678;4.900;2022-11-30T11:37:29;915.03;;;709.20;;
74196;SDS011;62555;52.678;4.900;2022-11-30T11:42:51;1283.53;;;844.05;;
74196;SDS011;62555;52.678;4.900;2022-11-30T11:45:26;1120.93;;;775.92;;
74196;SDS011;62555;52.678;4.900;2022-11-30T11:47:59;930.83;;;671.17;;
74196;SDS011;62555;52.678;4.900;2022-11-30T11:50:32;767.03;;;564.22;;
74196;SDS011;62555;52.678;4.900;2022-11-30T11:55:59;524.25;;;349.95;;
74196;SDS011;62555;52.678;4.900;2022-11-30T11:59:12;840.42;;;665.40;;
74196;SDS011;62555;52.678;4.900;2022-11-30T12:01:32;1544.85;;;927.35;;
74196;SDS011;62555;52.678;4.900;2022-11-30T12:13:47;1599.50;;;943.42;;
74196;SDS011;62555;52.678;4.900;2022-11-30T12:32:37;491.02;;;298.38;;
74196;SDS011;62555;52.678;4.900;2022-11-30T12:35:44;355.15;;;193.32;;
74196;SDS011;62555;52.678;4.900;2022-11-30T12:49:26;16.90;;;10.53;;
74196;SDS011;62555;52.678;4.900;2022-11-30T12:57:33;11.40;;;7.20;;
74196;SDS011;62555;52.678;4.900;2022-11-30T13:05:01;8.38;;;5.97;;
74196;SDS011;62555;52.678;4.900;2022-11-30T13:10:23;7.90;;;5.45;;
74196;SDS011;62555;52.678;4.900;2022-11-30T13:12:51;9.30;;;6.30;;
74196;SDS011;62555;52.678;4.900;2022-11-30T13:15:22;8.07;;;5.72;;
74196;SDS011;62555;52.678;4.900;2022-11-30T13:17:49;9.38;;;6.03;;
74196;SDS011;62555;52.678;4.900;2022-11-30T13:31:26;7.43;;;5.55;;
74196;SDS011;62555;52.678;4.900;2022-11-30T13:41:39;7.55;;;5.05;;
74196;SDS011;62555;52.678;4.900;2022-11-30T13:44:04;6.78;;;5.43;;
74196;SDS011;62555;52.678;4.900;2022-11-30T13:46:53;7.15;;;5.85;;
74196;SDS011;62555;52.678;4.900;2022-11-30T13:51:48;8.80;;;6.07;;
74196;SDS011;62555;52.678;4.900;2022-11-30T13:59:57;7.95;;;5.90;;
74196;SDS011;62555;52.678;4.900;2022-11-30T14:07:45;8.32;;;5.93;;
74196;SDS011;62555;52.678;4.900;2022-11-30T14:10:32;9.63;;;5.57;;
74196;SDS011;62555;52.678;4.900;2022-11-30T14:26:13;8.38;;;5.28;;
74196;SDS011;62555;52.678;4.900;2022-11-30T14:28:46;8.65;;;5.85;;
74196;SDS011;62555;52.678;4.900;2022-11-30T14:31:18;9.45;;;5.85;;
74196;SDS011;62555;52.678;4.900;2022-11-30T14:33:50;7.90;;;6.38;;
74196;SDS011;62555;52.678;4.900;2022-11-30T14:36:18;9.50;;;5.97;;
74196;SDS011;62555;52.678;4.900;2022-11-30T14:38:44;7.93;;;5.65;;
74196;SDS011;62555;52.678;4.900;2022-11-30T14:41:17;8.95;;;5.55;;
74196;SDS011;62555;52.678;4.900;2022-11-30T14:46:26;7.85;;;5.90;;
74196;SDS011;62555;52.678;4.900;2022-11-30T14:51:42;8.43;;;5.65;;
74196;SDS011;62555;52.678;4.900;2022-11-30T14:56:51;9.68;;;6.25;;
74196;SDS011;62555;52.678;4.900;2022-11-30T15:02:05;9.52;;;6.55;;
74196;SDS011;62555;52.678;4.900;2022-11-30T15:04:36;7.57;;;5.78;;
74196;SDS011;62555;52.678;4.900;2022-11-30T15:07:02;8.68;;;6.72;;
74196;SDS011;62555;52.678;4.900;2022-11-30T15:09:29;8.32;;;5.45;;
74196;SDS011;62555;52.678;4.900;2022-11-30T15:11:55;11.23;;;6.93;;
74196;SDS011;62555;52.678;4.900;2022-11-30T15:14:21;9.13;;;5.90;;
74196;SDS011;62555;52.678;4.900;2022-11-30T15:16:51;8.70;;;6.07;;
74196;SDS011;62555;52.678;4.900;2022-11-30T15:19:25;9.55;;;6.43;;
74196;SDS011;62555;52.678;4.900;2022-11-30T15:21:57;8.23;;;6.45;;
74196;SDS011;62555;52.678;4.900;2022-11-30T15:24:23;11.02;;;6.15;;
74196;SDS011;62555;52.678;4.900;2022-11-30T15:29:33;11.32;;;7.20;;
74196;SDS011;62555;52.678;4.900;2022-11-30T15:32:05;9.68;;;6.80;;
74196;SDS011;62555;52.678;4.900;2022-11-30T15:34:49;9.48;;;6.38;;
74196;SDS011;62555;52.678;4.900;2022-11-30T15:37:17;9.48;;;7.07;;
74196;SDS011;62555;52.678;4.900;2022-11-30T15:39:47;10.32;;;6.25;;
74196;SDS011;62555;52.678;4.900;2022-11-30T15:42:18;10.98;;;7.40;;
74196;SDS011;62555;52.678;4.900;2022-11-30T15:44:45;10.27;;;7.15;;
74196;SDS011;62555;52.678;4.900;2022-11-30T15:47:34;10.00;;;7.55;;
74196;SDS011;62555;52.678;4.900;2022-11-30T15:50:01;12.45;;;8.48;;
74196;SDS011;62555;52.678;4.900;2022-11-30T15:52:28;12.23;;;6.65;;
74196;SDS011;62555;52.678;4.900;2022-11-30T15:57:21;10.90;;;7.47;;
74196;SDS011;62555;52.678;4.900;2022-11-30T16:02:33;76.78;;;51.22;;
74196;SDS011;62555;52.678;4.900;2022-11-30T16:05:04;100.78;;;63.88;;
74196;SDS011;62555;52.678;4.900;2022-11-30T16:12:59;1416.03;;;897.20;;
74196;SDS011;62555;52.678;4.900;2022-11-30T16:15:28;1594.03;;;976.78;;
74196;SDS011;62555;52.678;4.900;2022-11-30T16:17:59;1602.20;;;999.90;;
74196;SDS011;62555;52.678;4.900;2022-11-30T16:20:43;1610.15;;;999.90;;
74196;SDS011;62555;52.678;4.900;2022-11-30T16:23:13;1616.85;;;999.90;;
74196;SDS011;62555;52.678;4.900;2022-11-30T16:25:40;1633.00;;;999.90;;
74196;SDS011;62555;52.678;4.900;2022-11-30T16:28:09;1633.72;;;999.90;;
74196;SDS011;62555;52.678;4.900;2022-11-30T16:30:36;1640.32;;;999.90;;
74196;SDS011;62555;52.678;4.900;2022-11-30T16:33:02;1636.25;;;999.90;;
74196;SDS011;62555;52.678;4.900;2022-11-30T16:38:03;1641.50;;;999.90;;
74196;SDS011;62555;52.678;4.900;2022-11-30T16:40:29;1641.50;;;999.90;;
74196;SDS011;62555;52.678;4.900;2022-11-30T16:42:56;1641.50;;;999.90;;
74196;SDS011;62555;52.678;4.900;2022-11-30T16:45:22;1638.20;;;999.90;;
74196;SDS011;62555;52.678;4.900;2022-11-30T16:47:49;1635.00;;;999.90;;
74196;SDS011;62555;52.678;4.900;2022-11-30T16:50:15;1636.45;;;999.90;;
74196;SDS011;62555;52.678;4.900;2022-11-30T16:52:41;1637.43;;;999.90;;
74196;SDS011;62555;52.678;4.900;2022-11-30T16:55:13;1635.13;;;999.90;;
74196;SDS011;62555;52.678;4.900;2022-11-30T16:57:40;1637.88;;;999.90;;
74196;SDS011;62555;52.678;4.900;2022-11-30T17:00:05;1633.93;;;999.90;;
74196;SDS011;62555;52.678;4.900;2022-11-30T17:02:32;1631.35;;;999.90;;
74196;SDS011;62555;52.678;4.900;2022-11-30T17:04:58;1630.55;;;999.90;;
74196;SDS011;62555;52.678;4.900;2022-11-30T17:07:24;1631.10;;;999.90;;
74196;SDS011;62555;52.678;4.900;2022-11-30T17:09:49;1630.35;;;999.90;;
74196;SDS011;62555;52.678;4.900;2022-11-30T17:12:14;1625.75;;;999.90;;
74196;SDS011;62555;52.678;4.900;2022-11-30T17:14:40;1621.38;;;999.90;;
74196;SDS011;62555;52.678;4.900;2022-11-30T17:17:05;1616.55;;;986.90;;
74196;SDS011;62555;52.678;4.900;2022-11-30T17:19:30;1621.60;;;990.17;;
74196;SDS011;62555;52.678;4.900;2022-11-30T17:21:56;1613.07;;;982.70;;
74196;SDS011;62555;52.678;4.900;2022-11-30T17:24:21;1617.95;;;987.70;;
74196;SDS011;62555;52.678;4.900;2022-11-30T17:26:46;1619.78;;;990.35;;
74196;SDS011;62555;52.678;4.900;2022-11-30T17:29:12;1621.22;;;999.90;;
74196;SDS011;62555;52.678;4.900;2022-11-30T17:31:37;1619.68;;;999.90;;
74196;SDS011;62555;52.678;4.900;2022-11-30T17:34:02;1622.43;;;999.90;;
74196;SDS011;62555;52.678;4.900;2022-11-30T17:36:28;1619.15;;;997.85;;
74196;SDS011;62555;52.678;4.900;2022-11-30T17:38:53;1614.72;;;976.88;;
74196;SDS011;62555;52.678;4.900;2022-11-30T17:41:19;1608.97;;;955.95;;
74196;SDS011;62555;52.678;4.900;2022-11-30T17:43:46;1610.25;;;936.30;;
74196;SDS011;62555;52.678;4.900;2022-11-30T17:46:13;1607.43;;;927.42;;
74196;SDS011;62555;52.678;4.900;2022-11-30T17:48:42;1604.97;;;899.83;;